createdAt,value
2022-10-30T00:01:39.694Z,7.20
2022-10-30T00:04:06.416Z,7.35
2022-10-30T00:06:33.031Z,7.53
2022-10-30T00:08:59.707Z,6.50
2022-10-30T00:11:26.360Z,7.47
2022-10-30T00:13:53.083Z,7.40
2022-10-30T00:16:19.744Z,8.30
2022-10-30T00:18:46.395Z,6.60
2022-10-30T00:21:15.426Z,7.13
2022-10-30T00:23:47.563Z,8.20
2022-10-30T00:26:15.090Z,6.65
2022-10-30T00:28:41.739Z,5.78
2022-10-30T00:31:09.157Z,6.18
2022-10-30T00:33:35.877Z,6.35
2022-10-30T00:36:02.750Z,6.22
2022-10-30T00:38:29.455Z,7.03
2022-10-30T00:40:56.136Z,5.68
2022-10-30T00:43:33.718Z,5.40
2022-10-30T00:46:14.202Z,6.50
2022-10-30T00:48:42.559Z,5.25
2022-10-30T00:51:11.503Z,5.22
2022-10-30T00:53:38.816Z,5.75
2022-10-30T00:56:08.569Z,5.70
2022-10-30T00:59:00.485Z,6.10
2022-10-30T01:01:36.171Z,5.07
2022-10-30T01:04:05.802Z,5.38
2022-10-30T01:06:35.865Z,4.88
2022-10-30T01:09:03.903Z,5.07
2022-10-30T01:11:31.153Z,4.90
2022-10-30T01:14:03.050Z,5.85
2022-10-30T01:16:51.508Z,4.60
2022-10-30T01:19:33.489Z,4.63
2022-10-30T01:22:07.068Z,4.80
2022-10-30T01:25:11.590Z,4.53
2022-10-30T01:27:53.666Z,4.63
2022-10-30T01:30:29.618Z,5.00
2022-10-30T01:33:11.598Z,4.40
2022-10-30T01:35:47.712Z,4.72
2022-10-30T01:38:23.975Z,4.03
2022-10-30T01:40:50.883Z,4.30
2022-10-30T01:43:17.573Z,3.97
2022-10-30T01:45:44.217Z,5.25
2022-10-30T01:48:22.953Z,3.47
2022-10-30T01:51:08.293Z,3.83
2022-10-30T01:54:16.819Z,4.13
2022-10-30T01:57:01.872Z,3.42
2022-10-30T01:59:43.468Z,3.50
2022-10-30T02:02:10.822Z,3.88
2022-10-30T02:04:38.734Z,4.07
2022-10-30T02:07:05.738Z,3.50
2022-10-30T02:09:32.455Z,3.72
2022-10-30T02:12:00.717Z,3.35
2022-10-30T02:14:42.639Z,3.50
2022-10-30T02:17:11.677Z,3.80
2022-10-30T02:19:38.661Z,3.55
2022-10-30T02:22:05.741Z,3.35
2022-10-30T02:24:32.731Z,4.32
2022-10-30T02:26:59.462Z,3.55
2022-10-30T02:29:26.475Z,3.42
2022-10-30T02:31:53.193Z,3.90
2022-10-30T02:34:20.571Z,3.33
2022-10-30T02:36:47.245Z,3.72
2022-10-30T02:39:13.951Z,2.42
2022-10-30T02:41:40.592Z,3.78
2022-10-30T02:44:07.481Z,3.05
2022-10-30T02:46:34.933Z,3.33
2022-10-30T02:49:01.678Z,2.47
2022-10-30T02:51:28.634Z,2.38
2022-10-30T02:53:55.301Z,3.20
2022-10-30T02:56:21.971Z,2.88
2022-10-30T02:58:48.758Z,3.40
2022-10-30T03:01:18.510Z,2.55
2022-10-30T03:03:46.562Z,2.55
2022-10-30T03:06:15.706Z,2.47
2022-10-30T03:08:43.858Z,3.05
2022-10-30T03:11:13.469Z,2.72
2022-10-30T03:13:41.049Z,2.22
2022-10-30T03:16:12.941Z,2.13
2022-10-30T03:18:40.588Z,2.42
2022-10-30T03:21:09.424Z,2.60
2022-10-30T03:23:36.092Z,2.13
2022-10-30T03:26:03.391Z,2.92
2022-10-30T03:28:32.123Z,2.33
2022-10-30T03:31:11.328Z,3.15
2022-10-30T03:33:38.566Z,2.78
2022-10-30T03:36:07.061Z,2.85
2022-10-30T03:38:34.169Z,3.35
2022-10-30T03:41:01.009Z,2.95
2022-10-30T03:43:27.933Z,2.25
2022-10-30T03:45:55.933Z,2.45
2022-10-30T03:48:25.092Z,2.72
2022-10-30T03:50:56.634Z,2.72
2022-10-30T03:53:26.284Z,2.15
2022-10-30T03:55:57.515Z,2.35
2022-10-30T03:58:24.215Z,2.50
2022-10-30T04:00:50.877Z,2.60
2022-10-30T04:03:17.584Z,3.53
2022-10-30T04:05:44.276Z,2.65
2022-10-30T04:08:14.861Z,1.90
2022-10-30T04:10:46.086Z,2.78
2022-10-30T04:13:15.171Z,2.67
2022-10-30T04:15:41.956Z,2.10
2022-10-30T04:18:11.432Z,2.72
2022-10-30T04:20:38.400Z,3.38
2022-10-30T04:23:07.738Z,2.17
2022-10-30T04:25:35.590Z,3.50
2022-10-30T04:28:03.095Z,2.72
2022-10-30T04:30:34.185Z,3.53
2022-10-30T04:33:02.496Z,3.10
2022-10-30T04:35:31.770Z,3.95
2022-10-30T04:38:03.691Z,3.20
2022-10-30T04:40:33.881Z,2.78
2022-10-30T04:43:01.344Z,2.72
2022-10-30T04:45:28.160Z,4.35
2022-10-30T04:48:05.838Z,2.65
2022-10-30T04:50:33.657Z,3.45
2022-10-30T04:53:02.067Z,2.65
2022-10-30T04:55:29.811Z,2.95
2022-10-30T04:57:58.953Z,4.47
2022-10-30T05:00:27.432Z,4.22
2022-10-30T05:02:54.379Z,2.47
2022-10-30T05:05:21.342Z,3.75
2022-10-30T05:07:47.960Z,3.13
2022-10-30T05:10:15.349Z,2.95
2022-10-30T05:12:43.470Z,2.33
2022-10-30T05:15:11.248Z,3.88
2022-10-30T05:17:38.182Z,3.33
2022-10-30T05:20:06.178Z,2.55
2022-10-30T05:22:33.303Z,2.40
2022-10-30T05:24:59.965Z,2.78
2022-10-30T05:27:26.690Z,3.38
2022-10-30T05:29:53.350Z,2.95
2022-10-30T05:32:20.054Z,2.92
2022-10-30T05:34:46.665Z,2.15
2022-10-30T05:37:13.291Z,2.97
2022-10-30T05:39:39.982Z,3.78
2022-10-30T05:42:09.798Z,3.97
2022-10-30T05:44:59.977Z,3.88
2022-10-30T05:47:26.006Z,2.92
2022-10-30T05:49:52.699Z,3.10
2022-10-30T05:52:19.373Z,5.28
2022-10-30T05:54:46.047Z,2.92
2022-10-30T05:57:12.752Z,2.35
2022-10-30T05:59:39.378Z,2.53
2022-10-30T06:02:06.067Z,2.28
2022-10-30T06:04:33.032Z,2.60
2022-10-30T06:06:59.699Z,2.80
2022-10-30T06:09:26.347Z,1.83
2022-10-30T06:11:54.147Z,2.47
2022-10-30T06:14:20.844Z,2.63
2022-10-30T06:16:48.618Z,2.65
2022-10-30T06:19:18.422Z,2.95
2022-10-30T06:21:46.069Z,2.47
2022-10-30T06:24:12.865Z,3.90
2022-10-30T06:26:39.957Z,3.33
2022-10-30T06:29:06.786Z,2.88
2022-10-30T06:31:33.470Z,4.13
2022-10-30T06:34:00.184Z,4.05
2022-10-30T06:36:26.932Z,3.20
2022-10-30T06:38:53.549Z,3.65
2022-10-30T06:41:21.076Z,4.95
2022-10-30T06:43:49.092Z,4.72
2022-10-30T06:46:15.736Z,2.75
2022-10-30T06:48:42.483Z,3.10
2022-10-30T06:51:09.164Z,3.63
2022-10-30T06:53:35.982Z,3.38
2022-10-30T06:56:03.840Z,2.67
2022-10-30T06:58:31.125Z,3.55
2022-10-30T07:01:01.298Z,3.63
2022-10-30T07:03:28.198Z,3.30
2022-10-30T07:05:54.919Z,3.92
2022-10-30T07:08:21.576Z,3.17
2022-10-30T07:10:48.372Z,4.13
2022-10-30T07:13:15.014Z,4.13
2022-10-30T07:18:11.412Z,3.00
2022-10-30T07:20:43.537Z,2.20
2022-10-30T07:23:16.569Z,3.25
2022-10-30T07:25:43.839Z,3.00
2022-10-30T07:28:11.746Z,4.10
2022-10-30T07:30:39.187Z,3.63
2022-10-30T07:33:08.044Z,3.08
2022-10-30T07:38:19.480Z,2.65
2022-10-30T07:46:15.191Z,4.15
2022-10-30T07:51:22.813Z,3.75
2022-10-30T07:53:49.497Z,2.60
2022-10-30T07:56:16.174Z,3.85
2022-10-30T07:58:45.717Z,2.88
2022-10-30T08:01:12.742Z,2.92
2022-10-30T08:03:39.415Z,2.53
2022-10-30T08:06:06.430Z,2.65
2022-10-30T08:08:33.144Z,2.50
2022-10-30T08:10:59.832Z,3.70
2022-10-30T08:13:26.613Z,3.10
2022-10-30T08:15:53.324Z,2.70
2022-10-30T08:18:20.034Z,2.40
2022-10-30T08:20:50.649Z,2.70
2022-10-30T08:23:19.832Z,3.60
2022-10-30T08:25:47.258Z,2.75
2022-10-30T08:28:14.623Z,4.25
2022-10-30T08:30:41.543Z,3.20
2022-10-30T08:33:13.675Z,2.72
2022-10-30T08:35:48.048Z,3.17
2022-10-30T08:38:14.787Z,2.63
2022-10-30T08:40:41.534Z,3.53
2022-10-30T08:43:08.837Z,3.80
2022-10-30T08:45:36.071Z,2.60
2022-10-30T08:48:04.767Z,3.53
2022-10-30T08:50:32.754Z,3.35
2022-10-30T08:53:07.513Z,2.55
2022-10-30T08:55:35.545Z,2.63
2022-10-30T08:58:02.299Z,4.57
2022-10-30T09:00:29.680Z,3.08
2022-10-30T09:02:56.838Z,3.63
2022-10-30T09:05:23.850Z,3.88
2022-10-30T09:07:56.662Z,3.00
2022-10-30T09:10:23.938Z,2.72
2022-10-30T09:12:58.571Z,4.18
2022-10-30T09:15:26.661Z,3.83
2022-10-30T09:17:58.349Z,3.17
2022-10-30T09:20:25.777Z,5.05
2022-10-30T09:22:52.675Z,3.20
2022-10-30T09:25:19.709Z,4.65
2022-10-30T09:27:46.874Z,4.72
2022-10-30T09:30:14.595Z,4.63
2022-10-30T09:32:41.492Z,3.70
2022-10-30T09:35:09.123Z,4.00
2022-10-30T09:37:37.053Z,3.72
2022-10-30T09:40:05.887Z,4.60
2022-10-30T09:42:50.042Z,4.10
2022-10-30T09:45:38.054Z,4.18
2022-10-30T09:48:11.425Z,4.47
2022-10-30T09:50:46.974Z,3.70
2022-10-30T09:53:39.324Z,4.28
2022-10-30T09:56:19.440Z,4.38
2022-10-30T09:59:05.680Z,4.25
2022-10-30T10:01:48.058Z,3.88
2022-10-30T10:04:38.353Z,4.15
2022-10-30T10:07:16.630Z,4.95
2022-10-30T10:09:44.977Z,4.00
2022-10-30T10:12:22.424Z,4.78
2022-10-30T10:14:49.666Z,4.43
2022-10-30T10:17:39.328Z,4.55
2022-10-30T10:20:16.487Z,4.13
2022-10-30T10:22:50.794Z,4.15
2022-10-30T10:25:20.478Z,4.70
2022-10-30T10:27:47.078Z,3.95
2022-10-30T10:30:20.942Z,4.18
2022-10-30T10:33:06.496Z,3.92
2022-10-30T10:35:43.990Z,3.30
2022-10-30T10:38:32.554Z,4.15
2022-10-30T10:41:27.245Z,4.43
2022-10-30T10:44:06.126Z,4.45
2022-10-30T10:46:47.879Z,3.28
2022-10-30T10:49:45.407Z,2.58
2022-10-30T10:52:21.806Z,4.05
2022-10-30T10:54:51.473Z,4.97
2022-10-30T10:57:28.977Z,3.10
2022-10-30T11:00:06.876Z,3.35
2022-10-30T11:02:48.781Z,3.45
2022-10-30T11:05:28.755Z,5.60
2022-10-30T11:08:01.688Z,4.18
2022-10-30T11:10:28.539Z,4.93
2022-10-30T11:12:55.251Z,4.15
2022-10-30T11:15:29.531Z,4.95
2022-10-30T11:18:03.065Z,5.35
2022-10-30T11:20:51.496Z,3.30
2022-10-30T11:23:38.800Z,4.60
2022-10-30T11:26:24.234Z,4.80
2022-10-30T11:29:14.705Z,4.13
2022-10-30T11:31:43.837Z,3.97
2022-10-30T11:34:19.675Z,4.53
2022-10-30T11:36:50.593Z,5.68
2022-10-30T11:39:21.537Z,4.57
2022-10-30T11:42:07.041Z,5.07
2022-10-30T11:44:38.430Z,5.15
2022-10-30T11:47:07.164Z,3.75
2022-10-30T11:49:40.720Z,3.83
2022-10-30T11:52:08.572Z,4.35
2022-10-30T11:54:41.879Z,4.78
2022-10-30T11:57:27.360Z,4.25
2022-10-30T11:59:59.312Z,3.95
2022-10-30T12:02:30.381Z,4.55
2022-10-30T12:05:02.154Z,5.05
2022-10-30T12:07:33.819Z,4.32
2022-10-30T12:10:01.898Z,4.10
2022-10-30T12:12:34.458Z,5.18
2022-10-30T12:15:20.137Z,3.85
2022-10-30T12:18:02.804Z,5.65
2022-10-30T12:20:30.004Z,3.88
2022-10-30T12:22:58.086Z,4.53
2022-10-30T12:25:32.414Z,4.50
2022-10-30T12:28:12.755Z,3.95
2022-10-30T12:30:56.643Z,5.80
2022-10-30T12:33:38.874Z,4.72
2022-10-30T12:36:15.924Z,3.85
2022-10-30T12:38:45.663Z,5.15
2022-10-30T12:41:30.201Z,4.57
2022-10-30T12:44:04.782Z,3.95
2022-10-30T12:46:34.552Z,4.30
2022-10-30T12:49:19.810Z,4.85
2022-10-30T12:52:14.917Z,3.60
2022-10-30T12:54:56.863Z,3.53
2022-10-30T12:57:37.752Z,6.05
2022-10-30T13:00:13.758Z,4.07
2022-10-30T13:02:51.634Z,3.85
2022-10-30T13:05:24.496Z,5.53
2022-10-30T13:08:00.913Z,4.10
2022-10-30T13:10:41.607Z,5.20
2022-10-30T13:13:16.528Z,4.07
2022-10-30T13:15:56.018Z,4.63
2022-10-30T13:18:24.868Z,5.03
2022-10-30T13:21:12.965Z,4.13
2022-10-30T13:23:55.210Z,6.43
2022-10-30T13:26:25.059Z,5.07
2022-10-30T13:29:13.933Z,5.15
2022-10-30T13:31:56.237Z,4.80
2022-10-30T13:34:31.972Z,5.35
2022-10-30T13:37:13.536Z,4.60
2022-10-30T13:40:03.229Z,4.40
2022-10-30T13:42:38.975Z,5.35
2022-10-30T13:45:50.583Z,4.80
2022-10-30T13:48:48.116Z,4.03
2022-10-30T13:51:41.286Z,5.40
2022-10-30T13:54:15.670Z,5.50
2022-10-30T13:56:44.131Z,5.75
2022-10-30T13:59:30.971Z,5.70
2022-10-30T14:02:07.084Z,4.78
2022-10-30T14:05:10.662Z,5.07
2022-10-30T14:07:41.614Z,6.00
2022-10-30T14:10:20.822Z,6.55
2022-10-30T14:12:51.355Z,6.05
2022-10-30T14:15:32.021Z,6.22
2022-10-30T14:18:14.031Z,6.28
2022-10-30T14:20:49.144Z,5.40
2022-10-30T14:23:20.241Z,5.22
2022-10-30T14:26:02.260Z,5.68
2022-10-30T14:28:34.398Z,5.50
2022-10-30T14:31:08.057Z,5.75
2022-10-30T14:33:42.107Z,5.50
2022-10-30T14:36:19.693Z,5.30
2022-10-30T14:38:54.943Z,4.88
2022-10-30T14:41:32.272Z,6.70
2022-10-30T14:44:37.492Z,6.10
2022-10-30T14:47:27.120Z,7.40
2022-10-30T14:50:00.960Z,6.47
2022-10-30T14:52:49.310Z,5.22
2022-10-30T14:55:26.616Z,5.05
2022-10-30T14:58:15.569Z,3.95
2022-10-30T15:00:43.262Z,5.32
2022-10-30T15:03:15.765Z,5.68
2022-10-30T15:05:54.414Z,5.25
2022-10-30T15:08:52.215Z,6.18
2022-10-30T15:11:57.069Z,4.97
2022-10-30T15:17:27.851Z,4.53
2022-10-30T15:22:23.752Z,4.93
2022-10-30T15:24:54.812Z,6.05
2022-10-30T15:27:24.108Z,5.70
2022-10-30T15:30:01.342Z,4.63
2022-10-30T15:32:28.368Z,4.35
2022-10-30T15:35:03.133Z,6.65
2022-10-30T15:37:30.906Z,6.53
2022-10-30T15:40:20.727Z,6.82
2022-10-30T15:43:00.692Z,6.30
2022-10-30T15:45:40.562Z,4.88
2022-10-30T15:48:31.973Z,5.68
2022-10-30T15:50:58.681Z,6.15
2022-10-30T15:53:34.986Z,4.53
2022-10-30T15:56:02.727Z,6.45
2022-10-30T15:58:37.464Z,6.47
2022-10-30T16:01:04.451Z,5.53
2022-10-30T16:03:31.271Z,5.70
2022-10-30T16:06:06.086Z,5.32
2022-10-30T16:08:44.068Z,5.65
2022-10-30T16:11:10.841Z,5.32
2022-10-30T16:13:37.578Z,6.35
2022-10-30T16:16:05.057Z,6.10
2022-10-30T16:18:36.035Z,5.40
2022-10-30T16:21:06.570Z,6.57
2022-10-30T16:23:42.654Z,6.43
2022-10-30T16:26:34.552Z,6.07
2022-10-30T16:29:13.126Z,6.13
2022-10-30T16:31:43.417Z,5.90
2022-10-30T16:34:32.139Z,5.70
2022-10-30T16:37:00.126Z,4.97
2022-10-30T16:39:28.148Z,5.88
2022-10-30T16:41:58.910Z,6.60
2022-10-30T16:44:31.363Z,5.13
2022-10-30T16:47:00.005Z,6.13
2022-10-30T16:49:30.560Z,5.15
2022-10-30T16:52:00.582Z,5.07
2022-10-30T16:54:31.239Z,4.82
2022-10-30T16:57:00.276Z,5.30
2022-10-30T16:59:35.393Z,7.65
2022-10-30T17:02:06.753Z,5.63
2022-10-30T17:04:35.041Z,5.93
2022-10-30T17:07:08.081Z,6.88
2022-10-30T17:09:37.577Z,5.03
2022-10-30T17:12:14.279Z,4.65
2022-10-30T17:14:46.985Z,5.97
2022-10-30T17:17:25.756Z,5.55
2022-10-30T17:19:57.807Z,5.45
2022-10-30T17:22:30.828Z,5.47
2022-10-30T17:27:46.840Z,5.88
2022-10-30T17:30:35.587Z,5.80
2022-10-30T17:33:21.861Z,4.53
2022-10-30T17:35:50.759Z,5.15
2022-10-30T17:38:18.623Z,4.38
2022-10-30T17:40:51.158Z,5.32
2022-10-30T17:43:18.918Z,3.88
2022-10-30T17:45:46.752Z,5.32
2022-10-30T17:48:18.627Z,3.40
2022-10-30T17:50:46.582Z,4.18
2022-10-30T17:53:22.141Z,3.85
2022-10-30T17:59:58.701Z,3.83
2022-10-30T18:02:26.149Z,3.63
2022-10-30T18:04:58.234Z,2.53
2022-10-30T18:07:25.665Z,4.40
2022-10-30T18:09:54.323Z,3.33
2022-10-30T18:12:21.188Z,3.03
2022-10-30T18:14:47.904Z,3.47
2022-10-30T18:17:14.680Z,3.10
2022-10-30T18:19:41.451Z,3.80
2022-10-30T18:22:10.319Z,3.13
2022-10-30T18:24:37.046Z,2.67
2022-10-30T18:27:03.854Z,3.15
2022-10-30T18:29:30.562Z,2.70
2022-10-30T18:31:57.202Z,3.03
2022-10-30T18:34:23.902Z,3.17
2022-10-30T18:36:50.620Z,3.17
2022-10-30T18:39:17.314Z,2.45
2022-10-30T18:41:46.217Z,3.35
2022-10-30T18:44:17.912Z,3.60
2022-10-30T18:46:45.359Z,3.13
2022-10-30T18:49:12.587Z,4.15
2022-10-30T18:51:39.506Z,4.13
2022-10-30T18:54:15.903Z,3.40
2022-10-30T18:56:43.446Z,3.40
2022-10-30T18:59:10.516Z,3.15
2022-10-30T19:01:37.654Z,3.22
2022-10-30T19:04:09.226Z,2.50
2022-10-30T19:06:38.574Z,2.63
2022-10-30T19:09:05.361Z,3.00
2022-10-30T19:11:34.202Z,3.72
2022-10-30T19:14:00.848Z,3.08
2022-10-30T19:16:28.047Z,2.97
2022-10-30T19:18:54.855Z,2.72
2022-10-30T19:21:25.790Z,3.33
2022-10-30T19:23:53.104Z,3.20
2022-10-30T19:26:19.858Z,2.80
2022-10-30T19:28:46.556Z,2.42
2022-10-30T19:31:17.818Z,3.05
2022-10-30T19:33:51.510Z,1.85
2022-10-30T19:36:27.751Z,2.13
2022-10-30T19:38:54.773Z,2.33
2022-10-30T19:41:21.579Z,2.60
2022-10-30T19:43:48.754Z,1.98
2022-10-30T19:46:15.468Z,2.10
2022-10-30T19:48:59.243Z,2.03
2022-10-30T19:51:27.975Z,3.28
2022-10-30T19:53:57.722Z,2.05
2022-10-30T19:56:24.406Z,2.15
2022-10-30T19:58:51.584Z,2.10
2022-10-30T20:01:19.226Z,2.20
2022-10-30T20:03:50.516Z,2.00
2022-10-30T20:06:19.538Z,3.22
2022-10-30T20:08:46.288Z,1.73
2022-10-30T20:11:13.350Z,2.13
2022-10-30T20:13:39.996Z,2.05
2022-10-30T20:16:07.711Z,2.25
2022-10-30T20:18:36.734Z,2.25
2022-10-30T20:21:14.966Z,2.60
2022-10-30T20:23:42.960Z,1.90
2022-10-30T20:26:40.367Z,2.42
2022-10-30T20:29:13.798Z,2.28
2022-10-30T20:31:45.755Z,1.95
2022-10-30T20:34:16.690Z,1.75
2022-10-30T20:36:44.074Z,2.67
2022-10-30T20:39:18.543Z,2.25
2022-10-30T20:41:50.409Z,2.42
2022-10-30T20:44:18.189Z,2.22
2022-10-30T20:46:46.841Z,2.53
2022-10-30T20:49:17.666Z,1.63
2022-10-30T20:51:45.335Z,2.67
2022-10-30T20:54:13.327Z,1.35
2022-10-30T20:56:40.241Z,1.73
2022-10-30T20:59:06.926Z,1.98
2022-10-30T21:01:35.134Z,2.65
2022-10-30T21:04:04.137Z,1.83
2022-10-30T21:06:30.777Z,2.20
2022-10-30T21:08:59.503Z,3.10
2022-10-30T21:11:26.417Z,2.00
2022-10-30T21:13:56.835Z,2.38
2022-10-30T21:16:23.762Z,2.13
2022-10-30T21:18:54.846Z,2.47
2022-10-30T21:21:25.542Z,2.47
2022-10-30T21:23:56.459Z,1.63
2022-10-30T21:26:24.703Z,2.05
2022-10-30T21:28:51.528Z,3.05
2022-10-30T21:31:18.436Z,2.00
2022-10-30T21:33:45.312Z,1.90
2022-10-30T21:36:15.258Z,2.15
2022-10-30T21:38:44.999Z,2.20
2022-10-30T21:41:17.254Z,2.78
2022-10-30T21:43:48.915Z,2.53
2022-10-30T21:46:15.621Z,1.58
2022-10-30T21:48:42.314Z,1.95
2022-10-30T21:51:17.531Z,2.38
2022-10-30T21:53:45.884Z,1.90
2022-10-30T21:56:21.738Z,2.33
2022-10-30T21:58:49.208Z,2.22
2022-10-30T22:01:16.988Z,2.10
2022-10-30T22:03:44.231Z,2.40
2022-10-30T22:06:13.250Z,1.90
2022-10-30T22:08:40.612Z,2.08
2022-10-30T22:11:10.608Z,3.40
2022-10-30T22:13:37.756Z,3.30
2022-10-30T22:16:06.877Z,4.57
2022-10-30T22:18:33.887Z,4.40
2022-10-30T22:21:06.675Z,7.82
2022-10-30T22:23:34.192Z,8.18
2022-10-30T22:26:03.327Z,7.18
2022-10-30T22:28:32.534Z,6.00
2022-10-30T22:31:07.536Z,4.45
2022-10-30T22:33:34.682Z,4.40
2022-10-30T22:36:23.405Z,3.88
2022-10-30T22:38:56.440Z,3.97
2022-10-30T22:41:28.677Z,3.60
2022-10-30T22:43:59.359Z,3.17
2022-10-30T22:46:30.641Z,3.10
2022-10-30T22:48:58.153Z,3.13
2022-10-30T22:51:25.582Z,2.60
2022-10-30T22:53:58.968Z,2.15
2022-10-30T22:56:28.521Z,2.78
2022-10-30T22:58:56.162Z,2.53
2022-10-30T23:01:29.016Z,2.30
2022-10-30T23:03:57.356Z,1.88
2022-10-30T23:06:25.102Z,2.10
2022-10-30T23:08:53.182Z,2.10
2022-10-30T23:11:20.421Z,2.17
2022-10-30T23:13:47.738Z,2.17
2022-10-30T23:16:17.586Z,1.90
2022-10-30T23:18:44.734Z,1.98
2022-10-30T23:21:19.557Z,1.58
2022-10-30T23:23:46.584Z,1.70
2022-10-30T23:26:25.600Z,1.60
2022-10-30T23:28:54.078Z,1.63
2022-10-30T23:31:27.926Z,1.98
2022-10-30T23:33:57.294Z,2.05
2022-10-30T23:36:24.886Z,1.90
2022-10-30T23:38:56.339Z,1.90
2022-10-30T23:41:25.233Z,1.40
2022-10-30T23:43:56.481Z,1.65
2022-10-30T23:46:23.648Z,1.58
2022-10-30T23:48:50.527Z,1.85
2022-10-30T23:51:17.921Z,1.80
2022-10-30T23:53:44.593Z,1.67
2022-10-30T23:56:11.606Z,1.50
2022-10-30T23:58:38.474Z,1.52
